Time;durP1;ratioP1;P1;durP2;ratioP2;P2;SDS_P1;SDS_P2;PMS_P1;PMS_P2;Temp;Humidity;BMP_temperature;BMP_pressure;BME280_temperature;BME280_humidity;BME280_pressure;Samples;Min_cycle;Max_cycle;Signal;HPM_P1;HPM_P2
2021/11/25 00:05:12;;;;;;;59.73;55.20;;;;;;;6.36;100.00;101749.61;2005743;71;33355;-71
2021/11/25 00:10:56;;;;;;;60.37;55.63;;;;;;;6.32;100.00;101756.67;1996959;71;33282;-72
2021/11/25 00:16:40;;;;;;;60.90;56.13;;;;;;;6.49;100.00;101760.98;2018420;71;33361;-72
2021/11/25 00:22:25;;;;;;;59.60;54.70;;;;;;;6.58;100.00;101761.79;1988283;71;33227;-72
2021/11/25 00:28:10;;;;;;;63.07;58.23;;;;;;;6.54;100.00;101752.84;2004027;71;32866;-72
2021/11/25 00:33:54;;;;;;;58.60;54.00;;;;;;;6.54;100.00;101752.84;2013036;71;32924;-75
2021/11/25 00:39:38;;;;;;;57.97;53.37;;;;;;;6.55;100.00;101739.31;1998374;71;32949;-74
2021/11/25 00:45:22;;;;;;;58.90;54.33;;;;;;;6.49;100.00;101735.61;2000520;71;32824;-74
2021/11/25 00:51:07;;;;;;;56.80;52.23;;;;;;;6.63;100.00;101724.63;2016731;71;32817;-72
2021/11/25 00:59:57;;;;;;;59.60;55.17;;;;;;;6.77;100.00;101723.86;1994662;71;32815;-74
2021/11/25 01:05:41;;;;;;;59.27;54.57;;;;;;;6.61;100.00;101716.30;1998509;71;33486;-72
2021/11/25 01:11:28;;;;;;;58.13;53.77;;;;;;;6.58;100.00;101707.12;1996849;71;32740;-72
2021/11/25 01:17:12;;;;;;;56.67;52.33;;;;;;;6.58;100.00;101710.72;2011558;71;32830;-77
2021/11/25 01:22:57;;;;;;;58.43;53.80;;;;;;;6.86;100.00;101708.09;2014849;70;32825;-72
2021/11/25 01:28:41;;;;;;;61.77;56.93;;;;;;;6.98;100.00;101705.86;2000547;71;32757;-72
2021/11/25 01:34:25;;;;;;;61.83;57.10;;;;;;;6.88;100.00;101706.48;2009157;71;32943;-71
2021/11/25 01:40:13;;;;;;;62.23;57.23;;;;;;;6.94;100.00;101706.04;1994938;71;32854;-71
2021/11/25 01:45:59;;;;;;;60.77;55.93;;;;;;;7.09;100.00;101696.20;2007784;71;33381;-74
2021/11/25 01:51:43;;;;;;;62.23;57.37;;;;;;;6.95;100.00;101706.34;2016540;71;32883;-75
2021/11/25 01:57:27;;;;;;;62.30;57.07;;;;;;;7.00;100.00;101708.70;1994636;71;32811;-75
2021/11/25 02:03:12;;;;;;;62.27;57.27;;;;;;;6.91;100.00;101712.05;1995095;70;32728;-75
2021/11/25 02:08:56;;;;;;;65.30;59.80;;;;;;;6.90;100.00;101723.64;2007671;71;33354;-72
2021/11/25 02:14:40;;;;;;;63.23;57.80;;;;;;;6.95;100.00;101709.95;1998459;71;32902;-76
2021/11/25 02:20:26;;;;;;;64.77;59.47;;;;;;;7.09;100.00;101716.08;2011607;71;33358;-70
2021/11/25 02:26:10;;;;;;;63.53;58.20;;;;;;;6.96;100.00;101713.56;2016500;71;32912;-72
2021/11/25 02:31:56;;;;;;;63.93;58.73;;;;;;;6.81;100.00;101708.50;1991295;71;32839;-73
2021/11/25 02:37:40;;;;;;;63.33;58.23;;;;;;;7.00;100.00;101714.22;1991406;71;32807;-75
2021/11/25 02:43:37;;;;;;;63.80;58.63;;;;;;;7.11;100.00;101715.28;2014858;71;32990;-74
2021/11/25 02:49:22;;;;;;;63.40;57.90;;;;;;;7.14;100.00;101714.83;1999962;71;33463;-75
2021/11/25 02:55:10;;;;;;;66.00;60.47;;;;;;;7.13;100.00;101707.61;2006029;71;32839;-75
2021/11/25 03:00:58;;;;;;;67.33;61.90;;;;;;;7.14;100.00;101703.23;1999995;71;33430;-75
2021/11/25 03:06:42;;;;;;;65.20;59.97;;;;;;;7.17;100.00;101701.36;2003612;71;33311;-75
2021/11/25 03:12:26;;;;;;;64.37;58.80;;;;;;;7.15;100.00;101693.84;2014652;71;32909;-75
2021/11/25 03:18:11;;;;;;;67.50;62.00;;;;;;;7.29;100.00;101696.66;1991464;71;32841;-75
2021/11/25 03:23:58;;;;;;;64.80;59.50;;;;;;;7.20;100.00;101691.20;1973957;71;33090;-72
2021/11/25 03:29:43;;;;;;;66.53;60.93;;;;;;;7.21;100.00;101688.73;2016480;71;33334;-75
2021/11/25 03:35:27;;;;;;;69.07;63.67;;;;;;;7.17;100.00;101686.70;2005532;71;32960;-75
2021/11/25 03:41:13;;;;;;;67.63;62.13;;;;;;;7.13;100.00;101682.20;2013453;70;32882;-74
2021/11/25 03:46:57;;;;;;;65.97;60.40;;;;;;;7.23;100.00;101696.23;2014642;71;32899;-74
2021/11/25 03:52:42;;;;;;;65.87;60.40;;;;;;;7.15;100.00;101692.45;2000548;71;33336;-73
2021/11/25 03:58:27;;;;;;;67.70;62.23;;;;;;;7.16;100.00;101696.91;2009166;71;32912;-72
2021/11/25 04:04:11;;;;;;;65.93;60.27;;;;;;;7.30;100.00;101699.72;2006192;71;33253;-73
2021/11/25 04:09:55;;;;;;;65.77;60.27;;;;;;;7.37;100.00;101707.02;2009346;71;32818;-75
2021/11/25 04:15:39;;;;;;;66.03;60.43;;;;;;;7.34;100.00;101709.74;1998345;71;32825;-72
2021/11/25 04:21:26;;;;;;;66.17;60.77;;;;;;;7.22;100.00;101717.22;2003815;71;32803;-75
2021/11/25 04:27:10;;;;;;;61.47;56.63;;;;;;;7.49;100.00;101731.33;2013237;71;32939;-72
2021/11/25 04:38:56;;;;;;;54.70;50.40;;;;;;;7.59;100.00;101729.64;2016376;71;32822;-72
2021/11/25 04:44:40;;;;;;;52.67;48.87;;;;;;;7.64;100.00;101713.16;2000674;71;33368;-72
2021/11/25 04:50:28;;;;;;;50.77;47.17;;;;;;;7.55;100.00;101707.72;2000104;71;33342;-72
2021/11/25 04:56:13;;;;;;;50.87;47.23;;;;;;;7.45;100.00;101706.10;2006055;71;32754;-74
2021/11/25 05:01:57;;;;;;;50.50;46.87;;;;;;;7.32;100.00;101707.75;1919061;71;39569;-71
2021/11/25 05:07:41;;;;;;;51.07;47.70;;;;;;;7.14;100.00;101701.85;2005480;71;32973;-75
2021/11/25 05:13:26;;;;;;;51.60;48.23;;;;;;;6.96;100.00;101707.50;2003815;71;32921;-74
2021/11/25 05:19:10;;;;;;;47.63;44.53;;;;;;;6.76;100.00;101702.31;2006127;71;32773;-75
2021/11/25 05:24:54;;;;;;;49.67;46.37;;;;;;;6.69;100.00;101698.00;2007873;71;32864;-74
2021/11/25 05:30:38;;;;;;;48.23;45.03;;;;;;;6.64;100.00;101706.98;1996934;71;32941;-72
2021/11/25 05:36:22;;;;;;;43.57;40.70;;;;;;;6.72;100.00;101711.31;2016733;71;33434;-72
2021/11/25 05:42:07;;;;;;;44.73;41.93;;;;;;;6.70;100.00;101704.67;2009459;70;32944;-75
2021/11/25 05:47:52;;;;;;;43.43;40.83;;;;;;;6.38;100.00;101694.47;2013234;71;33345;-75
2021/11/25 05:53:38;;;;;;;45.20;42.23;;;;;;;6.20;100.00;101705.61;2003951;71;33417;-72
2021/11/25 05:59:22;;;;;;;42.93;40.07;;;;;;;6.44;100.00;101707.02;2000863;71;33310;-74
2021/11/25 06:05:08;;;;;;;41.57;39.10;;;;;;;6.47;100.00;101708.77;2016932;71;32946;-74
2021/11/25 06:10:52;;;;;;;42.93;40.00;;;;;;;6.45;100.00;101705.95;2000207;71;33332;-72
2021/11/25 06:16:36;;;;;;;42.87;40.37;;;;;;;6.35;100.00;101714.80;1994782;71;33356;-76
2021/11/25 06:22:20;;;;;;;43.80;40.93;;;;;;;5.97;100.00;101720.68;1998623;71;32781;-76
2021/11/25 06:28:04;;;;;;;43.07;40.00;;;;;;;5.61;100.00;101715.18;2000616;71;33388;-72
2021/11/25 06:33:48;;;;;;;45.93;42.93;;;;;;;5.67;100.00;101712.89;2016529;71;33538;-75
2021/11/25 06:39:32;;;;;;;44.97;42.07;;;;;;;5.27;100.00;101727.14;2000725;71;32873;-76
2021/11/25 06:45:16;;;;;;;44.33;41.17;;;;;;;5.31;100.00;101720.09;2014793;71;33389;-76
2021/11/25 06:51:01;;;;;;;44.50;41.67;;;;;;;5.45;100.00;101711.15;2014704;71;32932;-72
2021/11/25 06:56:45;;;;;;;45.27;42.37;;;;;;;5.14;100.00;101737.45;2000067;71;33366;-73
2021/11/25 07:02:29;;;;;;;43.50;40.40;;;;;;;5.11;100.00;101741.52;2004297;71;32805;-74
2021/11/25 07:08:13;;;;;;;42.90;40.50;;;;;;;5.38;100.00;101751.72;2018390;71;33355;-73
2021/11/25 07:13:57;;;;;;;41.33;39.03;;;;;;;5.04;100.00;101747.63;2002490;71;32781;-72
2021/11/25 07:19:41;;;;;;;39.70;37.40;;;;;;;5.14;100.00;101769.13;2007936;71;32770;-72
2021/11/25 07:25:25;;;;;;;43.27;40.57;;;;;;;5.13;100.00;101774.34;2009627;71;33357;-72
2021/11/25 07:31:10;;;;;;;40.97;38.57;;;;;;;5.02;100.00;101772.63;2018324;71;33376;-72
2021/11/25 07:36:54;;;;;;;43.83;41.17;;;;;;;4.98;100.00;101778.28;2013390;71;32839;-71
2021/11/25 07:42:38;;;;;;;43.80;41.10;;;;;;;5.01;100.00;101785.23;1991415;70;32794;-75
2021/11/25 07:48:23;;;;;;;40.67;38.27;;;;;;;5.13;100.00;101791.72;2011577;71;32759;-75
2021/11/25 07:54:08;;;;;;;40.47;38.13;;;;;;;4.97;100.00;101783.47;2002356;71;32766;-73
2021/11/25 07:59:53;;;;;;;40.90;38.40;;;;;;;5.26;100.00;101791.55;2014922;71;32799;-72
2021/11/25 08:05:38;;;;;;;40.10;37.60;;;;;;;5.20;100.00;101808.16;1995218;71;32834;-71
2021/11/25 08:11:22;;;;;;;38.37;36.07;;;;;;;5.27;100.00;101818.57;2000190;71;33378;-71
2021/11/25 08:17:09;;;;;;;40.03;37.27;;;;;;;5.18;100.00;101805.63;1998745;71;32758;-75
2021/11/25 08:22:52;;;;;;;39.23;36.87;;;;;;;5.37;100.00;101820.28;2006082;71;32764;-76
2021/11/25 08:28:38;;;;;;;37.63;35.07;;;;;;;5.29;100.00;101817.83;1991127;71;32757;-72
2021/11/25 08:34:23;;;;;;;37.27;35.17;;;;;;;5.31;100.00;101830.81;2009462;71;32972;-71
2021/11/25 08:40:11;;;;;;;37.67;35.17;;;;;;;5.41;100.00;101846.31;2014795;71;32904;-78
2021/11/25 08:45:55;;;;;;;36.53;34.30;;;;;;;5.43;100.00;101857.40;2016561;71;32910;-74
2021/11/25 08:51:40;;;;;;;35.77;33.47;;;;;;;5.53;100.00;101854.13;2005618;71;32933;-73
2021/11/25 08:57:24;;;;;;;35.10;32.90;;;;;;;5.53;100.00;101850.53;1995060;71;32777;-78
2021/11/25 09:03:08;;;;;;;34.20;32.10;;;;;;;5.67;100.00;101851.55;2014955;71;32899;-72
2021/11/25 09:08:52;;;;;;;33.40;31.40;;;;;;;5.70;100.00;101844.73;2009483;71;32870;-71
2021/11/25 09:14:36;;;;;;;33.50;31.20;;;;;;;5.70;100.00;101846.11;2014788;71;32931;-79
2021/11/25 09:20:20;;;;;;;33.57;31.63;;;;;;;5.76;100.00;101841.91;2004315;70;33294;-79
2021/11/25 09:26:04;;;;;;;32.20;30.30;;;;;;;5.91;100.00;101853.95;2005743;71;32812;-72
2021/11/25 09:31:50;;;;;;;34.80;32.47;;;;;;;5.92;100.00;101857.88;2009875;71;32903;-79
2021/11/25 09:37:33;;;;;;;34.73;32.23;;;;;;;6.00;100.00;101856.72;2014791;71;32893;-73
2021/11/25 09:43:25;;;;;;;35.07;32.67;;;;;;;6.10;100.00;101847.37;2005690;71;32902;-76
2021/11/25 09:49:10;;;;;;;33.93;31.43;;;;;;;6.25;100.00;101856.08;2009649;71;32848;-72
2021/11/25 09:54:54;;;;;;;33.67;31.57;;;;;;;6.30;100.00;101853.47;2016483;71;32866;-71
2021/11/25 10:00:38;;;;;;;32.87;30.83;;;;;;;6.32;100.00;101845.81;1998409;71;32899;-77
2021/11/25 10:06:26;;;;;;;31.33;29.33;;;;;;;6.44;100.00;101852.76;2004587;70;33457;-71
2021/11/25 10:12:36;;;;;;;31.83;29.83;;;;;;;6.46;100.00;101865.77;2000640;71;32759;-72
2021/11/25 10:18:44;;;;;;;31.50;29.60;;;;;;;6.65;100.00;101877.62;2018373;71;33341;-72
2021/11/25 10:24:34;;;;;;;29.63;27.93;;;;;;;6.63;100.00;101876.46;1997031;71;32822;-72
2021/11/25 10:30:35;;;;;;;28.63;26.93;;;;;;;6.81;100.00;101868.66;2003889;71;32875;-76
2021/11/25 10:36:33;;;;;;;28.70;26.60;;;;;;;6.89;100.00;101855.08;2009706;71;32821;-72
2021/11/25 10:42:27;;;;;;;29.30;27.43;;;;;;;6.90;100.00;101856.20;2000108;71;32894;-75
2021/11/25 10:48:11;;;;;;;27.40;25.80;;;;;;;6.90;100.00;101847.92;2005465;71;32810;-71
2021/11/25 10:54:06;;;;;;;28.83;27.03;;;;;;;7.01;100.00;101861.47;2007278;71;32907;-77
2021/11/25 10:59:54;;;;;;;27.90;26.20;;;;;;;7.12;100.00;101852.34;2010913;71;33453;-71
2021/11/25 11:05:55;;;;;;;28.13;26.30;;;;;;;7.12;100.00;101842.14;2004283;71;32869;-76
2021/11/25 11:11:40;;;;;;;27.50;26.00;;;;;;;7.11;100.00;101840.98;2009125;71;32885;-71
2021/11/25 11:17:30;;;;;;;27.60;25.70;;;;;;;7.11;100.00;101843.22;2007957;71;32743;-71
2021/11/25 11:23:23;;;;;;;26.03;24.30;;;;;;;7.38;100.00;101849.67;2018249;71;32900;-75
2021/11/25 11:29:09;;;;;;;29.23;27.40;;;;;;;7.29;100.00;101851.41;2010973;71;32833;-76
2021/11/25 11:34:56;;;;;;;27.13;25.43;;;;;;;7.50;100.00;101854.12;2004382;71;32868;-71
2021/11/25 11:40:42;;;;;;;27.40;25.67;;;;;;;7.41;100.00;101849.18;2015043;71;32890;-75
2021/11/25 11:46:28;;;;;;;25.90;24.50;;;;;;;7.56;100.00;101853.17;2016541;71;33418;-75
2021/11/25 11:52:17;;;;;;;26.77;25.17;;;;;;;7.68;100.00;101843.48;2009075;71;32833;-76
2021/11/25 11:58:14;;;;;;;27.07;25.10;;;;;;;7.85;100.00;101847.18;2013543;71;33254;-76
2021/11/25 12:03:59;;;;;;;26.27;24.70;;;;;;;7.74;100.00;101828.69;2016477;71;33396;-75
2021/11/25 12:09:56;;;;;;;24.83;23.00;;;;;;;7.85;100.00;101819.52;2011075;71;32863;-71
2021/11/25 12:15:40;;;;;;;25.37;23.73;;;;;;;7.83;100.00;101824.44;1996776;71;32816;-75
2021/11/25 12:21:48;;;;;;;25.17;23.57;;;;;;;7.99;100.00;101806.27;1991336;71;32874;-71
2021/11/25 12:27:40;;;;;;;25.97;23.93;;;;;;;8.04;100.00;101785.09;2016460;71;32862;-71
2021/11/25 12:33:43;;;;;;;25.80;24.30;;;;;;;8.12;100.00;101786.62;2001039;71;33315;-72
2021/11/25 12:39:43;;;;;;;23.80;22.23;;;;;;;8.07;100.00;101783.73;2016485;71;32911;-70
2021/11/25 12:45:30;;;;;;;24.13;22.60;;;;;;;8.11;100.00;101787.70;2000635;71;32796;-70
2021/11/25 12:51:42;;;;;;;23.30;21.80;;;;;;;8.22;100.00;101786.80;2011251;71;33381;-77
2021/11/25 12:57:26;;;;;;;24.07;22.53;;;;;;;8.23;100.00;101762.19;2000618;71;32777;-77
2021/11/25 13:03:12;;;;;;;21.63;20.43;;;;;;;8.34;100.00;101760.51;2011314;71;33312;-76
2021/11/25 13:08:59;;;;;;;23.07;21.63;;;;;;;8.30;100.00;101747.68;2002408;71;32864;-77
2021/11/25 13:14:44;;;;;;;25.30;23.67;;;;;;;8.32;100.00;101744.67;1998836;71;32773;-72
2021/11/25 13:24:11;;;;;;;24.70;23.27;;;;;;;8.40;100.00;101751.19;1974217;71;33516;-72
2021/11/25 13:30:01;;;;;;;24.57;22.97;;;;;;;8.44;100.00;101752.37;2016523;71;33078;-77
2021/11/25 13:35:46;;;;;;;23.37;21.93;;;;;;;8.45;100.00;101743.83;1999006;71;32764;-71
2021/11/25 13:41:30;;;;;;;22.80;21.50;;;;;;;8.43;100.00;101738.25;2000268;71;33322;-72
2021/11/25 13:47:21;;;;;;;21.77;20.37;;;;;;;8.50;100.00;101732.84;2016586;71;32925;-72
2021/11/25 13:53:07;;;;;;;22.30;21.10;;;;;;;8.40;100.00;101728.50;2014915;71;32839;-71
2021/11/25 13:58:53;;;;;;;23.30;21.80;;;;;;;8.38;100.00;101711.31;2002394;71;33322;-75
2021/11/25 14:04:38;;;;;;;22.63;21.13;;;;;;;8.46;100.00;101710.06;2000641;71;33303;-75
2021/11/25 14:10:27;;;;;;;23.00;21.60;;;;;;;8.39;100.00;101717.13;2007716;71;32943;-72
2021/11/25 14:16:19;;;;;;;22.83;21.33;;;;;;;8.41;100.00;101727.42;2009835;71;32777;-72
2021/11/25 14:22:04;;;;;;;23.70;22.20;;;;;;;8.44;100.00;101724.68;1999020;71;32877;-75
2021/11/25 14:33:54;;;;;;;25.83;24.10;;;;;;;8.36;100.00;101717.63;2013055;71;32948;-73
2021/11/25 14:39:39;;;;;;;24.73;22.93;;;;;;;8.39;100.00;101725.42;2008092;71;32882;-69
2021/11/25 14:45:27;;;;;;;24.53;22.70;;;;;;;8.33;100.00;101717.30;2006124;71;32899;-70
2021/11/25 14:51:12;;;;;;;26.07;24.50;;;;;;;8.28;100.00;101713.02;2004388;71;32972;-76
2021/11/25 14:57:01;;;;;;;25.87;24.27;;;;;;;8.14;100.00;101715.24;2016845;71;32926;-75
2021/11/25 15:02:48;;;;;;;26.90;25.20;;;;;;;8.30;100.00;101714.46;2010096;71;33353;-79
2021/11/25 15:08:36;;;;;;;26.67;25.17;;;;;;;8.06;100.00;101712.34;2002917;70;32858;-76
2021/11/25 15:14:25;;;;;;;26.33;24.73;;;;;;;8.10;100.00;101717.67;2018260;71;32913;-79
2021/11/25 15:20:12;;;;;;;27.30;25.23;;;;;;;8.08;100.00;101711.56;2000114;71;33470;-70
2021/11/25 15:25:57;;;;;;;26.90;25.40;;;;;;;8.04;100.00;101719.22;1997187;71;32857;-69
2021/11/25 15:31:43;;;;;;;27.17;25.43;;;;;;;7.85;100.00;101737.08;2014838;71;32911;-76
2021/11/25 15:37:28;;;;;;;34.47;32.20;;;;;;;7.36;100.00;101724.71;2014990;71;32886;-72
2021/11/25 15:43:13;;;;;;;31.73;29.67;;;;;;;7.19;100.00;101721.28;1996897;71;32741;-79
2021/11/25 15:48:57;;;;;;;31.80;29.67;;;;;;;7.22;100.00;101723.58;2010984;71;32925;-76
2021/11/25 15:54:44;;;;;;;32.20;30.30;;;;;;;7.22;100.00;101737.94;2013234;71;32879;-76
2021/11/25 16:00:28;;;;;;;30.50;28.60;;;;;;;7.30;100.00;101736.19;1995153;71;33379;-71
2021/11/25 16:06:13;;;;;;;30.50;28.33;;;;;;;7.35;100.00;101741.83;2005786;71;32819;-72
2021/11/25 16:11:58;;;;;;;30.23;28.10;;;;;;;7.31;100.00;101753.08;2013234;71;32904;-72
2021/11/25 16:17:43;;;;;;;31.13;29.10;;;;;;;7.23;100.00;101757.59;2014814;71;32807;-77
2021/11/25 16:23:28;;;;;;;31.37;29.27;;;;;;;7.18;100.00;101761.61;2003696;71;32839;-77
2021/11/25 16:29:11;;;;;;;32.23;30.13;;;;;;;7.14;100.00;101765.94;2009314;71;33429;-77
2021/11/25 16:34:55;;;;;;;33.73;31.70;;;;;;;7.06;100.00;101764.34;2011609;71;32739;-78
2021/11/25 16:40:42;;;;;;;33.87;31.87;;;;;;;6.97;100.00;101758.06;2009708;71;32824;-78
2021/11/25 16:47:03;;;;;;;32.87;30.60;;;;;;;6.79;100.00;101757.62;2005713;71;32908;-78
2021/11/25 16:52:26;;;;;;;37.47;34.87;;;;;;;6.31;100.00;101754.45;1923920;73;33450;-76
2021/11/25 16:58:11;;;;;;;35.90;33.60;;;;;;;6.39;100.00;101754.64;2016439;71;32881;-77
2021/11/25 17:03:56;;;;;;;38.50;36.23;;;;;;;6.53;100.00;101758.05;2007814;71;33325;-73
2021/11/25 17:09:42;;;;;;;35.70;33.30;;;;;;;6.31;100.00;101748.08;2014592;71;33401;-69
2021/11/25 17:15:28;;;;;;;36.47;33.80;;;;;;;6.63;100.00;101746.71;2016639;71;33271;-69
2021/11/25 17:21:13;;;;;;;37.23;34.67;;;;;;;6.66;100.00;101735.75;2014991;71;33276;-76
2021/11/25 17:26:59;;;;;;;35.07;32.97;;;;;;;6.55;100.00;101726.89;2000696;71;32743;-75
2021/11/25 17:32:44;;;;;;;36.33;33.80;;;;;;;6.57;100.00;101727.51;2006178;71;32857;-75
2021/11/25 17:38:28;;;;;;;34.70;32.30;;;;;;;6.27;100.00;101732.55;2013072;71;32967;-77
2021/11/25 17:44:12;;;;;;;38.00;34.97;;;;;;;6.28;100.00;101740.28;1997005;71;33291;-71
2021/11/25 17:49:56;;;;;;;37.93;35.40;;;;;;;6.06;100.00;101746.02;2016598;71;32900;-72
2021/11/25 17:55:41;;;;;;;39.23;36.47;;;;;;;5.88;100.00;101740.84;2000693;71;32812;-71
2021/11/25 18:01:25;;;;;;;42.03;39.30;;;;;;;5.86;100.00;101745.73;2009508;71;33313;-75
2021/11/25 18:07:13;;;;;;;43.63;41.00;;;;;;;5.84;100.00;101759.42;2018312;71;32910;-70
2021/11/25 18:12:57;;;;;;;44.13;41.10;;;;;;;5.85;100.00;101754.23;1995089;71;32779;-70
2021/11/25 18:18:43;;;;;;;44.37;41.73;;;;;;;5.86;100.00;101744.89;2014739;71;33402;-72
2021/11/25 18:27:35;;;;;;;40.63;37.93;;;;;;;5.90;100.00;101746.13;2030641;69;32687;-71
2021/11/25 18:30:08;;;;;;;41.70;39.17;;;;;;;5.80;100.00;101748.56;1935081;73;26264;-68
2021/11/25 18:32:40;;;;;;;41.03;38.43;;;;;;;5.80;100.00;101745.80;1937697;74;26328;-71
2021/11/25 18:35:13;;;;;;;43.77;40.67;;;;;;;5.71;100.00;101746.66;1964224;72;26201;-67
2021/11/25 18:37:44;;;;;;;40.93;38.33;;;;;;;5.71;100.00;101751.33;1934454;73;26216;-71
2021/11/25 18:40:15;;;;;;;43.03;40.50;;;;;;;5.70;100.00;101748.25;1940327;73;26219;-73
2021/11/25 18:42:46;;;;;;;45.80;42.47;;;;;;;5.49;100.00;101747.66;1940067;73;26233;-73
2021/11/25 18:45:19;;;;;;;43.33;40.67;;;;;;;5.34;100.00;101751.34;1944299;73;26223;-72
2021/11/25 18:51:05;;;;;;;41.57;38.67;;;;;;;5.53;100.00;101722.39;2003750;71;33337;-73
2021/11/25 18:56:50;;;;;;;43.60;40.67;;;;;;;5.64;100.00;101716.13;2007687;71;33383;-72
2021/11/25 19:02:35;;;;;;;42.73;39.93;;;;;;;5.34;100.00;101723.80;1923665;73;33479;-69
2021/11/25 19:08:20;;;;;;;43.63;40.60;;;;;;;5.12;100.00;101714.83;2014693;71;33007;-74
2021/11/25 19:14:07;;;;;;;46.87;43.57;;;;;;;4.40;100.00;101670.95;2009603;70;32837;-69
2021/11/25 19:19:53;;;;;;;43.47;40.37;;;;;;;4.79;100.00;101714.60;2011577;71;32774;-69
2021/11/25 19:25:46;;;;;;;41.40;38.40;;;;;;;4.98;100.00;101714.11;1991231;71;32894;-71
2021/11/25 19:31:34;;;;;;;42.63;39.60;;;;;;;4.92;100.00;101710.34;2016364;71;33325;-71
2021/11/25 19:37:18;;;;;;;40.57;37.90;;;;;;;4.86;100.00;101700.80;2018343;71;33423;-70
2021/11/25 19:43:03;;;;;;;42.03;39.20;;;;;;;4.71;100.00;101701.66;2018177;71;32823;-73
2021/11/25 19:48:48;;;;;;;44.13;41.17;;;;;;;4.35;100.00;101691.41;2014800;71;32856;-72
2021/11/25 19:54:34;;;;;;;42.77;39.87;;;;;;;4.28;100.00;101676.32;2014680;71;32830;-72
2021/11/25 20:00:23;;;;;;;45.87;42.70;;;;;;;4.31;100.00;101687.42;2014469;71;32850;-68
2021/11/25 20:06:08;;;;;;;44.80;41.77;;;;;;;4.34;100.00;101680.09;1963505;72;32849;-68
2021/11/25 20:11:56;;;;;;;42.10;39.20;;;;;;;4.30;100.00;101676.95;2002418;70;33360;-72
2021/11/25 20:18:02;;;;;;;43.67;40.47;;;;;;;4.26;100.00;101659.22;2013024;70;33397;-72
2021/11/25 20:24:07;;;;;;;45.50;42.07;;;;;;;4.26;100.00;101651.50;2002132;71;32836;-74
2021/11/25 20:30:22;;;;;;;47.63;44.03;;;;;;;4.02;100.00;101648.49;1996352;70;33400;-73
2021/11/25 20:36:13;;;;;;;46.90;43.47;;;;;;;3.85;100.00;101654.77;2006815;71;32850;-73
2021/11/25 20:41:59;;;;;;;49.23;45.63;;;;;;;3.89;100.00;101651.89;2007461;71;32836;-72
2021/11/25 20:47:53;;;;;;;49.57;45.97;;;;;;;3.88;100.00;101647.45;1999899;70;33540;-67
2021/11/25 20:53:45;;;;;;;48.37;44.80;;;;;;;3.83;100.00;101644.52;1960903;72;33398;-67
2021/11/25 20:59:36;;;;;;;48.90;45.30;;;;;;;4.00;100.00;101642.92;1964860;72;32924;-68
2021/11/25 21:05:25;;;;;;;49.30;45.40;;;;;;;4.01;100.00;101627.59;2003549;71;33407;-73
2021/11/25 21:11:20;;;;;;;47.47;43.93;;;;;;;3.97;100.00;101615.36;2015947;71;32984;-67
2021/11/25 21:17:10;;;;;;;47.33;43.67;;;;;;;4.07;100.00;101601.94;2000463;70;32764;-67
2021/11/25 21:23:16;;;;;;;46.93;43.67;;;;;;;4.16;100.00;101592.03;1986625;71;32860;-75
2021/11/25 21:29:04;;;;;;;44.93;41.50;;;;;;;4.23;100.00;101573.06;1998871;71;32862;-73
2021/11/25 21:34:54;;;;;;;43.97;40.57;;;;;;;4.40;100.00;101567.81;2014684;71;33398;-72
2021/11/25 21:40:40;;;;;;;42.33;39.43;;;;;;;4.49;100.00;101561.77;1991451;71;33260;-68
2021/11/25 21:46:25;;;;;;;42.90;39.90;;;;;;;4.64;100.00;101555.91;2011200;71;33504;-69
2021/11/25 21:52:12;;;;;;;41.60;38.63;;;;;;;4.75;100.00;101535.86;2002356;71;32906;-74
2021/11/25 21:57:57;;;;;;;41.50;38.57;;;;;;;4.76;100.00;101525.70;2004040;71;33380;-69
2021/11/25 22:03:46;;;;;;;40.17;37.27;;;;;;;4.75;100.00;101513.03;2002276;71;32804;-73
2021/11/25 22:09:31;;;;;;;39.83;37.03;;;;;;;4.73;100.00;101512.41;2016365;71;32972;-75
2021/11/25 22:15:18;;;;;;;38.13;35.53;;;;;;;4.88;100.00;101512.30;1995012;71;32754;-68
2021/11/25 22:21:17;;;;;;;38.60;36.00;;;;;;;4.99;100.00;101493.64;2015119;71;32889;-69
2021/11/25 22:27:02;;;;;;;39.03;36.27;;;;;;;5.04;100.00;101478.65;2012759;70;32887;-68
2021/11/25 22:32:47;;;;;;;37.13;34.57;;;;;;;5.08;100.00;101466.63;2004106;71;32822;-75
2021/11/25 22:38:31;;;;;;;37.37;34.77;;;;;;;5.14;100.00;101456.56;2009209;70;33326;-72
2021/11/25 22:44:18;;;;;;;28.63;26.90;;;;;;;5.24;100.00;101445.30;2002367;71;32826;-72
2021/11/25 22:50:03;;;;;;;29.00;27.00;;;;;;;5.14;100.00;101425.73;2014671;71;33081;-69
2021/11/25 22:55:49;;;;;;;29.73;27.93;;;;;;;5.12;100.00;101419.64;2005086;71;33000;-70
2021/11/25 23:01:35;;;;;;;29.83;27.93;;;;;;;5.03;100.00;101399.87;2011028;71;33407;-73
2021/11/25 23:07:20;;;;;;;31.33;29.33;;;;;;;5.00;100.00;101380.23;2018383;70;32878;-71
2021/11/25 23:13:06;;;;;;;32.23;30.30;;;;;;;4.93;100.00;101367.09;2013089;71;33360;-73
2021/11/25 23:18:50;;;;;;;32.57;30.67;;;;;;;4.74;100.00;101355.33;1999965;71;32929;-68
2021/11/25 23:24:38;;;;;;;29.83;28.10;;;;;;;4.75;100.00;101350.67;2011034;71;32984;-69
2021/11/25 23:30:24;;;;;;;33.27;31.10;;;;;;;4.74;100.00;101335.22;2003837;71;32856;-73
2021/11/25 23:36:09;;;;;;;33.57;31.37;;;;;;;4.53;100.00;101321.47;2000583;71;32836;-73
2021/11/25 23:41:54;;;;;;;35.13;32.80;;;;;;;4.48;100.00;101310.32;2011278;71;32942;-69
2021/11/25 23:47:41;;;;;;;30.73;28.93;;;;;;;4.42;100.00;101301.61;2002371;71;33260;-70
2021/11/25 23:53:26;;;;;;;27.57;25.30;;;;;;;4.52;100.00;101280.73;2014668;70;32992;-69
2021/11/25 23:59:10;;;;;;;39.17;36.33;;;;;;;4.39;100.00;101282.30;1991501;70;32823;-71
